Time;durP1;ratioP1;P1;durP2;ratioP2;P2;SDS_P1;SDS_P2;PMS_P1;PMS_P2;Temp;Humidity;BMP_temperature;BMP_pressure;BME280_temperature;BME280_humidity;BME280_pressure;Samples;Min_cycle;Max_cycle;Signal;HPM_P1;HPM_P2
2024/03/31 00:01:26;;;;;;;11.30;5.37;;;9.50;99.90;;;;;;5015427;28;20224;-74
2024/03/31 00:03:53;;;;;;;10.57;5.57;;;9.40;99.90;;;;;;4998447;28;20626;-74
2024/03/31 00:06:19;;;;;;;15.90;5.03;;;9.50;99.90;;;;;;5034799;28;20202;-74
2024/03/31 00:08:46;;;;;;;20.83;6.80;;;9.50;99.90;;;;;;5013053;28;20634;-74
2024/03/31 00:11:12;;;;;;;10.47;4.57;;;9.50;99.90;;;;;;5022508;28;20563;-74
2024/03/31 00:13:39;;;;;;;10.37;3.90;;;9.60;99.90;;;;;;5015891;28;20627;-75
2024/03/31 00:16:06;;;;;;;12.90;4.00;;;9.60;99.90;;;;;;5007553;28;20995;-75
2024/03/31 00:18:33;;;;;;;9.47;4.23;;;9.60;99.90;;;;;;5018844;28;20718;-75
2024/03/31 00:20:59;;;;;;;7.40;4.33;;;9.70;99.90;;;;;;5012992;28;20659;-74
2024/03/31 00:23:26;;;;;;;12.80;4.70;;;9.60;99.90;;;;;;5016823;28;20972;-74
2024/03/31 00:25:58;;;;;;;11.93;4.20;;;9.70;99.90;;;;;;5014489;28;20208;-75
2024/03/31 00:28:24;;;;;;;9.13;3.90;;;9.70;99.90;;;;;;5057358;28;20682;-75
2024/03/31 00:30:54;;;;;;;10.63;3.80;;;9.80;99.90;;;;;;5028938;28;20627;-75
2024/03/31 00:33:23;;;;;;;14.20;4.37;;;9.80;99.90;;;;;;5051586;28;20667;-75
2024/03/31 00:35:55;;;;;;;15.47;4.20;;;9.80;99.70;;;;;;5016879;28;20642;-75
2024/03/31 00:38:23;;;;;;;12.23;4.10;;;9.80;99.60;;;;;;5019174;28;20625;-75
2024/03/31 00:40:49;;;;;;;14.03;3.77;;;9.80;99.40;;;;;;4997395;28;20664;-75
2024/03/31 00:43:16;;;;;;;15.57;4.87;;;9.80;99.40;;;;;;5044035;28;20675;-75
2024/03/31 00:45:43;;;;;;;12.97;3.33;;;9.80;99.40;;;;;;5023417;28;20625;-75
2024/03/31 00:48:10;;;;;;;8.50;3.53;;;9.90;99.40;;;;;;5018716;28;20729;-75
2024/03/31 00:50:37;;;;;;;7.27;3.73;;;9.90;99.30;;;;;;5020387;28;20662;-75
2024/03/31 00:53:04;;;;;;;14.03;3.80;;;9.90;99.30;;;;;;5025536;28;21184;-75
2024/03/31 00:55:30;;;;;;;8.70;3.70;;;10.00;98.80;;;;;;5039936;28;20737;-75
2024/03/31 00:57:57;;;;;;;13.77;4.40;;;9.90;99.40;;;;;;5000841;28;21305;-75
2024/03/31 01:00:23;;;;;;;16.60;4.07;;;10.00;98.90;;;;;;5036346;28;20645;-75
2024/03/31 01:02:50;;;;;;;11.03;3.93;;;10.00;98.80;;;;;;5013597;28;21199;-75
2024/03/31 01:05:16;;;;;;;11.47;3.80;;;10.00;99.30;;;;;;4999359;28;21081;-75
2024/03/31 01:07:44;;;;;;;14.83;3.97;;;9.90;99.60;;;;;;5015016;28;20639;-75
2024/03/31 01:10:10;;;;;;;15.10;5.17;;;9.80;99.90;;;;;;5038128;28;21010;-75
2024/03/31 01:12:37;;;;;;;11.97;3.87;;;9.80;99.90;;;;;;5019014;28;21070;-75
2024/03/31 01:15:05;;;;;;;13.27;4.67;;;9.80;99.90;;;;;;5053243;28;20644;-75
2024/03/31 01:17:34;;;;;;;7.30;3.90;;;9.80;99.90;;;;;;4989151;28;20912;-75
2024/03/31 01:20:01;;;;;;;14.33;4.17;;;9.80;99.90;;;;;;4994044;28;20670;-75
2024/03/31 01:22:29;;;;;;;13.77;4.07;;;9.80;99.90;;;;;;5016578;28;20816;-75
2024/03/31 01:24:57;;;;;;;13.10;4.60;;;9.80;99.90;;;;;;5014392;28;20709;-75
2024/03/31 01:27:24;;;;;;;19.00;5.00;;;9.80;99.90;;;;;;5030238;28;20618;-76
2024/03/31 01:29:51;;;;;;;11.23;4.17;;;9.80;99.90;;;;;;5019996;28;20630;-75
2024/03/31 01:32:17;;;;;;;10.00;4.07;;;9.80;99.90;;;;;;5058632;28;21074;-76
2024/03/31 01:34:44;;;;;;;10.53;3.93;;;9.80;99.90;;;;;;5064043;28;20624;-74
2024/03/31 01:37:12;;;;;;;10.23;3.70;;;9.70;99.90;;;;;;5027598;28;20998;-75
2024/03/31 01:39:38;;;;;;;19.77;5.30;;;9.70;99.90;;;;;;5025099;28;20815;-75
2024/03/31 01:42:07;;;;;;;16.50;4.27;;;9.60;99.90;;;;;;4982546;28;20790;-75
2024/03/31 01:44:34;;;;;;;11.53;4.40;;;9.70;99.90;;;;;;5047604;28;20627;-74
2024/03/31 01:47:02;;;;;;;8.23;3.90;;;9.70;99.90;;;;;;5055005;28;20627;-75
2024/03/31 01:49:30;;;;;;;9.67;4.53;;;9.80;99.90;;;;;;4996037;28;20725;-74
2024/03/31 01:51:58;;;;;;;21.40;4.27;;;9.70;99.90;;;;;;5001100;28;21076;-74
2024/03/31 01:54:24;;;;;;;9.00;3.97;;;9.70;99.90;;;;;;5051190;28;20639;-74
2024/03/31 01:56:52;;;;;;;10.47;4.13;;;9.70;99.90;;;;;;5016656;28;20976;-74
2024/03/31 01:59:19;;;;;;;16.50;3.70;;;9.70;99.90;;;;;;5043718;28;21013;-76
2024/03/31 02:01:46;;;;;;;12.30;4.10;;;9.60;99.90;;;;;;5066146;28;21174;-76
2024/03/31 02:04:12;;;;;;;14.10;3.83;;;9.60;99.90;;;;;;5041454;28;20643;-74
2024/03/31 02:06:42;;;;;;;13.00;4.00;;;9.50;99.90;;;;;;5043323;28;20713;-75
2024/03/31 02:09:08;;;;;;;11.33;4.43;;;9.50;99.90;;;;;;5029346;28;21171;-74
2024/03/31 02:11:36;;;;;;;11.10;4.90;;;9.60;99.90;;;;;;5031467;28;20635;-74
2024/03/31 02:14:02;;;;;;;13.97;4.73;;;9.60;99.90;;;;;;5056932;28;22639;-74
2024/03/31 02:16:31;;;;;;;21.50;3.80;;;9.60;99.90;;;;;;5026929;28;20638;-74
2024/03/31 02:18:58;;;;;;;22.07;3.30;;;9.70;99.90;;;;;;5004736;28;20622;-74
2024/03/31 02:21:26;;;;;;;14.63;4.33;;;9.70;99.90;;;;;;5027836;28;20674;-74
2024/03/31 02:23:53;;;;;;;8.60;3.90;;;9.70;99.90;;;;;;5034550;28;20635;-74
2024/03/31 02:26:21;;;;;;;8.13;2.60;;;9.70;99.90;;;;;;5033735;28;20623;-74
2024/03/31 02:28:48;;;;;;;15.03;4.47;;;9.70;99.90;;;;;;5017896;28;21011;-74
2024/03/31 02:31:16;;;;;;;8.83;3.70;;;9.70;99.90;;;;;;5065496;28;20690;-74
2024/03/31 02:33:43;;;;;;;10.40;4.90;;;9.70;99.90;;;;;;5007923;28;20638;-74
2024/03/31 02:36:11;;;;;;;7.77;2.77;;;9.60;99.90;;;;;;5005565;28;20681;-74
2024/03/31 02:38:39;;;;;;;17.07;4.10;;;9.60;99.90;;;;;;5021174;28;20998;-74
2024/03/31 02:41:07;;;;;;;10.90;4.20;;;9.60;99.90;;;;;;5018145;28;21186;-74
2024/03/31 02:43:34;;;;;;;9.80;4.27;;;9.60;99.90;;;;;;5021271;28;20662;-75
2024/03/31 02:46:02;;;;;;;15.10;4.47;;;9.60;99.90;;;;;;4995984;28;21077;-74
2024/03/31 02:48:29;;;;;;;8.80;4.03;;;9.60;99.90;;;;;;5056656;28;20635;-74
2024/03/31 02:50:57;;;;;;;12.73;3.97;;;9.40;99.90;;;;;;5000907;28;20685;-74
2024/03/31 02:53:26;;;;;;;13.17;4.00;;;9.30;99.90;;;;;;5036944;28;20207;-74
2024/03/31 02:55:53;;;;;;;15.87;4.03;;;9.30;99.90;;;;;;5062295;28;20849;-74
2024/03/31 02:58:19;;;;;;;10.30;3.83;;;9.20;99.90;;;;;;5012491;28;20227;-74
2024/03/31 03:00:45;;;;;;;16.60;4.37;;;9.30;99.90;;;;;;5018404;28;20646;-74
2024/03/31 03:03:11;;;;;;;13.50;4.30;;;9.30;99.90;;;;;;5047728;28;20675;-74
2024/03/31 03:05:38;;;;;;;13.13;4.40;;;9.20;99.90;;;;;;5046063;28;20729;-74
2024/03/31 03:08:06;;;;;;;15.83;4.00;;;9.00;99.90;;;;;;5047823;28;20227;-74
2024/03/31 03:10:33;;;;;;;8.67;3.60;;;9.10;99.90;;;;;;5011451;28;20700;-75
2024/03/31 03:12:59;;;;;;;10.10;4.13;;;9.00;99.90;;;;;;5064576;28;21170;-75
2024/03/31 03:15:27;;;;;;;16.37;4.23;;;9.10;99.90;;;;;;5022980;28;21012;-75
2024/03/31 03:17:56;;;;;;;11.03;3.60;;;9.20;99.90;;;;;;5046300;28;20653;-75
2024/03/31 03:20:22;;;;;;;7.20;2.93;;;9.10;99.90;;;;;;5030302;28;20634;-74
2024/03/31 03:22:57;;;;;;;12.30;3.37;;;8.90;99.90;;;;;;5000132;28;20683;-74
2024/03/31 03:25:25;;;;;;;18.80;4.00;;;8.90;99.90;;;;;;5029725;28;20617;-74
2024/03/31 03:27:51;;;;;;;6.80;3.50;;;8.80;99.90;;;;;;5059654;28;21236;-74
2024/03/31 03:30:18;;;;;;;16.47;4.53;;;8.70;99.90;;;;;;5022638;28;20724;-74
2024/03/31 03:32:44;;;;;;;18.50;4.03;;;8.60;99.90;;;;;;5042108;28;20207;-74
2024/03/31 03:35:10;;;;;;;6.50;2.90;;;8.60;99.90;;;;;;5030042;28;20997;-74
2024/03/31 03:37:37;;;;;;;17.13;5.37;;;8.70;99.90;;;;;;5012372;28;20207;-74
2024/03/31 03:40:05;;;;;;;13.93;4.30;;;8.70;99.90;;;;;;4986309;28;20630;-74
2024/03/31 03:42:33;;;;;;;11.63;4.03;;;8.60;99.90;;;;;;4985114;28;20680;-74
2024/03/31 03:45:00;;;;;;;8.10;3.60;;;8.40;99.90;;;;;;5003844;28;20644;-74
2024/03/31 03:47:25;;;;;;;8.73;3.47;;;8.30;99.90;;;;;;5021116;28;21063;-74
2024/03/31 03:49:52;;;;;;;10.20;3.53;;;8.30;99.90;;;;;;5011738;28;20720;-74
2024/03/31 03:52:18;;;;;;;14.23;3.80;;;8.30;99.90;;;;;;4996956;28;20207;-74
2024/03/31 03:54:45;;;;;;;9.57;3.80;;;8.30;99.90;;;;;;5021139;28;21236;-73
2024/03/31 03:57:11;;;;;;;15.33;3.23;;;8.40;99.90;;;;;;5023140;28;20969;-73
2024/03/31 03:59:39;;;;;;;14.73;3.50;;;8.30;99.90;;;;;;5046437;28;20636;-75
2024/03/31 04:02:05;;;;;;;5.97;2.83;;;8.20;99.90;;;;;;5010353;28;20223;-74
2024/03/31 04:04:31;;;;;;;8.93;3.80;;;8.10;99.90;;;;;;5056548;28;20629;-74
2024/03/31 04:06:57;;;;;;;14.13;3.93;;;8.00;99.90;;;;;;5047312;28;20203;-73
2024/03/31 04:09:24;;;;;;;12.67;3.83;;;8.00;99.90;;;;;;5027883;28;20632;-74
2024/03/31 04:11:50;;;;;;;12.13;3.53;;;8.10;99.90;;;;;;5009847;28;20204;-75
2024/03/31 04:14:16;;;;;;;19.43;4.70;;;7.90;99.90;;;;;;5017885;28;21079;-74
2024/03/31 04:16:43;;;;;;;25.97;4.90;;;7.90;99.90;;;;;;5013197;28;20209;-74
2024/03/31 04:19:10;;;;;;;13.20;3.85;;;8.00;99.90;;;;;;5008520;28;20633;-74
2024/03/31 04:21:36;;;;;;;8.33;4.13;;;7.90;99.90;;;;;;5022513;28;20241;-74
2024/03/31 04:24:03;;;;;;;4.37;2.90;;;7.80;99.90;;;;;;5020660;28;20626;-73
2024/03/31 04:26:29;;;;;;;14.20;4.47;;;7.60;99.90;;;;;;5057582;28;20203;-74
2024/03/31 04:28:55;;;;;;;14.73;3.33;;;7.60;99.90;;;;;;4996767;28;20626;-74
2024/03/31 04:31:21;;;;;;;12.77;5.27;;;7.70;99.90;;;;;;5056121;28;20666;-74
2024/03/31 04:33:49;;;;;;;11.67;4.30;;;7.80;99.90;;;;;;5031197;28;20621;-74
2024/03/31 04:36:15;;;;;;;17.60;5.53;;;7.80;99.90;;;;;;5025169;28;20209;-74
2024/03/31 04:38:42;;;;;;;8.70;4.27;;;7.70;99.90;;;;;;5060374;28;20636;-74
2024/03/31 04:41:08;;;;;;;13.07;4.50;;;7.70;99.90;;;;;;5020999;28;20622;-74
2024/03/31 04:43:35;;;;;;;13.63;5.13;;;7.70;99.90;;;;;;5033817;28;20668;-74
2024/03/31 04:46:03;;;;;;;8.73;3.77;;;7.70;99.90;;;;;;5007808;28;20278;-74
2024/03/31 04:48:29;;;;;;;6.63;3.67;;;7.80;99.90;;;;;;5021863;28;20657;-74
2024/03/31 04:51:00;;;;;;;11.60;3.80;;;7.90;99.90;;;;;;5010988;28;20629;-74
2024/03/31 04:53:27;;;;;;;15.13;5.70;;;7.90;99.90;;;;;;5013701;28;20629;-74
2024/03/31 04:55:53;;;;;;;13.40;5.20;;;8.10;99.90;;;;;;5030760;28;20728;-74
2024/03/31 04:58:20;;;;;;;9.70;8.03;;;8.10;99.90;;;;;;4996697;28;21061;-74
2024/03/31 05:00:46;;;;;;;15.43;6.20;;;8.10;99.90;;;;;;5005991;28;20194;-74
2024/03/31 05:03:12;;;;;;;23.90;7.83;;;8.20;99.90;;;;;;4991496;28;21508;-74
2024/03/31 05:05:38;;;;;;;11.47;5.80;;;8.30;99.90;;;;;;5003055;28;20636;-75
2024/03/31 05:08:07;;;;;;;14.33;6.50;;;8.30;99.90;;;;;;4999624;28;20626;-74
2024/03/31 05:10:33;;;;;;;15.77;6.60;;;8.40;99.90;;;;;;5031206;28;20285;-74
2024/03/31 05:13:00;;;;;;;13.37;7.00;;;8.40;99.90;;;;;;5034756;28;20717;-74
2024/03/31 05:15:26;;;;;;;17.27;7.30;;;8.50;99.90;;;;;;5041385;28;20293;-74
2024/03/31 05:17:53;;;;;;;11.43;7.90;;;8.50;99.90;;;;;;4999532;28;20713;-74
2024/03/31 05:20:21;;;;;;;12.73;6.77;;;8.50;99.90;;;;;;4971979;28;20205;-74
2024/03/31 05:22:48;;;;;;;15.53;6.87;;;8.60;99.90;;;;;;5043869;28;20661;-74
2024/03/31 05:25:16;;;;;;;16.13;8.07;;;8.60;99.90;;;;;;5031005;28;20629;-74
2024/03/31 05:27:43;;;;;;;11.33;5.80;;;8.70;99.90;;;;;;5033085;28;20621;-74
2024/03/31 05:30:10;;;;;;;9.40;6.90;;;8.70;99.90;;;;;;4989229;28;20630;-74
2024/03/31 05:32:36;;;;;;;15.17;8.67;;;8.80;99.90;;;;;;5055460;28;20632;-75
2024/03/31 05:35:02;;;;;;;19.43;7.50;;;8.80;99.90;;;;;;5010360;28;20633;-74
2024/03/31 05:37:28;;;;;;;14.53;7.43;;;8.80;99.90;;;;;;4993260;28;20695;-74
2024/03/31 05:39:55;;;;;;;14.37;7.17;;;8.90;99.90;;;;;;5026160;28;20618;-74
2024/03/31 05:42:22;;;;;;;15.93;7.63;;;8.90;99.90;;;;;;5033029;28;20228;-74
2024/03/31 05:44:49;;;;;;;14.40;7.50;;;8.90;99.90;;;;;;5012330;28;21424;-75
2024/03/31 05:47:15;;;;;;;17.50;8.00;;;8.90;99.90;;;;;;5005780;28;21211;-74
2024/03/31 05:49:41;;;;;;;12.33;7.17;;;9.00;99.90;;;;;;5012625;28;20631;-74
2024/03/31 05:52:07;;;;;;;18.37;6.90;;;9.10;99.90;;;;;;4997977;28;20203;-74
2024/03/31 05:54:34;;;;;;;12.47;7.10;;;9.10;99.90;;;;;;5010632;28;20639;-75
2024/03/31 05:57:00;;;;;;;12.20;7.57;;;9.10;99.90;;;;;;5036175;28;20199;-74
2024/03/31 05:59:28;;;;;;;17.70;7.73;;;9.20;99.90;;;;;;5039488;28;20947;-75
2024/03/31 06:01:54;;;;;;;12.80;7.53;;;9.10;99.90;;;;;;5041153;28;20536;-75
2024/03/31 06:04:20;;;;;;;13.13;8.50;;;9.20;99.90;;;;;;4999024;28;20636;-74
2024/03/31 06:06:46;;;;;;;28.53;9.03;;;9.20;99.90;;;;;;5055504;28;20231;-74
2024/03/31 06:09:13;;;;;;;18.27;8.53;;;9.30;99.90;;;;;;5064892;28;20657;-74
2024/03/31 06:11:39;;;;;;;18.00;7.70;;;9.20;99.90;;;;;;5029903;28;20564;-74
2024/03/31 06:14:05;;;;;;;19.27;8.20;;;9.10;99.90;;;;;;5015692;28;20629;-74
2024/03/31 06:16:33;;;;;;;19.10;9.33;;;9.10;99.90;;;;;;5018487;28;20205;-74
2024/03/31 06:18:59;;;;;;;12.27;8.40;;;9.10;99.90;;;;;;5028050;28;20631;-74
2024/03/31 06:21:25;;;;;;;17.70;9.73;;;9.10;99.90;;;;;;5028081;28;20636;-73
2024/03/31 06:23:52;;;;;;;18.30;9.30;;;9.20;99.90;;;;;;5031109;28;20672;-73
2024/03/31 06:26:18;;;;;;;18.00;8.43;;;9.20;99.90;;;;;;5005552;28;20203;-74
2024/03/31 06:28:44;;;;;;;13.40;8.50;;;9.30;99.90;;;;;;5015799;28;20623;-74
2024/03/31 06:31:10;;;;;;;15.43;7.27;;;9.50;99.90;;;;;;5063310;28;20193;-74
2024/03/31 06:33:41;;;;;;;17.70;7.73;;;9.50;99.90;;;;;;5053034;28;21174;-74
2024/03/31 06:36:07;;;;;;;10.40;6.57;;;9.50;99.90;;;;;;5005951;28;20246;-74
2024/03/31 06:38:34;;;;;;;9.20;5.40;;;9.60;99.90;;;;;;5018740;28;21180;-74
2024/03/31 06:41:00;;;;;;;9.70;6.37;;;9.70;99.90;;;;;;5022026;28;20711;-74
2024/03/31 06:43:27;;;;;;;15.93;6.83;;;9.70;99.90;;;;;;5022257;28;20766;-74
2024/03/31 06:45:52;;;;;;;9.13;4.60;;;9.80;99.90;;;;;;5032301;28;20459;-74
2024/03/31 06:48:19;;;;;;;11.20;5.50;;;9.80;99.90;;;;;;5045942;28;21232;-74
2024/03/31 06:50:46;;;;;;;13.33;5.23;;;9.80;99.90;;;;;;5015479;28;20633;-74
2024/03/31 06:53:13;;;;;;;18.53;5.17;;;9.80;99.90;;;;;;5024408;28;20630;-74
2024/03/31 06:55:42;;;;;;;14.17;4.83;;;9.80;99.90;;;;;;5045983;28;21009;-74
2024/03/31 06:58:09;;;;;;;11.60;5.07;;;9.80;99.90;;;;;;5003777;28;21037;-74
2024/03/31 07:00:35;;;;;;;6.17;4.33;;;9.80;99.90;;;;;;5024387;28;20631;-74
2024/03/31 07:03:01;;;;;;;15.23;5.33;;;9.80;99.90;;;;;;5017096;28;20667;-74
2024/03/31 07:05:27;;;;;;;7.20;4.83;;;9.90;99.90;;;;;;5020763;28;20207;-74
2024/03/31 07:07:55;;;;;;;11.77;5.30;;;9.90;99.90;;;;;;5025306;28;21259;-74
2024/03/31 07:10:21;;;;;;;10.50;5.50;;;9.90;99.90;;;;;;5038202;28;20211;-74
2024/03/31 07:12:48;;;;;;;16.90;6.00;;;10.10;99.90;;;;;;5051394;28;20663;-74
2024/03/31 07:15:14;;;;;;;16.40;4.40;;;10.10;99.90;;;;;;5047075;28;20202;-74
2024/03/31 07:17:43;;;;;;;16.90;7.63;;;10.20;99.90;;;;;;5027212;28;21253;-74
2024/03/31 07:20:09;;;;;;;10.80;4.63;;;10.20;99.90;;;;;;5047425;28;20198;-74
2024/03/31 07:22:36;;;;;;;12.47;5.80;;;10.20;99.90;;;;;;5018995;28;20758;-74
2024/03/31 07:25:03;;;;;;;9.40;4.80;;;10.30;99.90;;;;;;5038924;28;20661;-74
2024/03/31 07:27:30;;;;;;;14.07;4.73;;;10.50;99.90;;;;;;5044546;28;20664;-74
2024/03/31 07:29:56;;;;;;;10.47;3.90;;;10.70;99.90;;;;;;5019151;28;20628;-74
2024/03/31 07:32:23;;;;;;;15.00;4.90;;;10.80;99.90;;;;;;5060245;28;20641;-75
2024/03/31 07:34:48;;;;;;;13.03;4.60;;;10.90;99.90;;;;;;5026773;28;20212;-74
2024/03/31 07:37:15;;;;;;;8.37;4.17;;;11.10;99.90;;;;;;5027933;28;20999;-74
2024/03/31 07:39:41;;;;;;;10.27;4.37;;;11.10;99.90;;;;;;5012329;28;20639;-74
2024/03/31 07:42:10;;;;;;;6.97;3.67;;;11.10;99.90;;;;;;5059348;28;20626;-74
2024/03/31 07:44:36;;;;;;;13.17;4.67;;;11.20;99.90;;;;;;5014418;28;20205;-74
2024/03/31 07:47:02;;;;;;;15.40;5.00;;;11.30;99.90;;;;;;5038043;28;21245;-74
2024/03/31 07:49:28;;;;;;;16.43;4.40;;;11.40;99.90;;;;;;5038577;28;20203;-74
2024/03/31 07:51:55;;;;;;;8.47;4.30;;;11.60;99.90;;;;;;5032307;28;20617;-74
2024/03/31 07:54:21;;;;;;;11.33;4.90;;;11.70;99.90;;;;;;5043639;28;20675;-74
2024/03/31 07:56:47;;;;;;;9.13;3.93;;;11.60;99.90;;;;;;5024041;28;20729;-74
2024/03/31 07:59:14;;;;;;;8.03;3.77;;;11.60;99.90;;;;;;4997755;28;20649;-74
2024/03/31 08:01:41;;;;;;;6.97;4.30;;;11.70;99.90;;;;;;5001859;28;20626;-72
2024/03/31 08:04:07;;;;;;;6.33;3.97;;;11.90;99.90;;;;;;5025327;28;20669;-72
2024/03/31 08:06:34;;;;;;;9.17;4.20;;;11.90;99.90;;;;;;5012506;28;20988;-73
2024/03/31 08:08:59;;;;;;;10.50;3.67;;;12.00;99.90;;;;;;4977283;28;20670;-73
2024/03/31 08:11:26;;;;;;;8.17;3.10;;;12.10;99.90;;;;;;4989062;28;20630;-73
2024/03/31 08:13:55;;;;;;;13.63;3.33;;;12.10;99.50;;;;;;4984589;28;20214;-75
2024/03/31 08:16:25;;;;;;;11.70;3.60;;;12.10;99.90;;;;;;5025557;28;21024;-77
2024/03/31 08:18:51;;;;;;;17.17;3.00;;;12.00;99.60;;;;;;5015585;28;20975;-78
2024/03/31 08:21:18;;;;;;;11.13;4.03;;;12.20;99.80;;;;;;4989098;28;20633;-75
2024/03/31 08:23:43;;;;;;;7.60;3.40;;;12.30;99.50;;;;;;4993433;28;20226;-76
2024/03/31 08:26:10;;;;;;;18.63;3.53;;;12.30;98.80;;;;;;4972511;28;20630;-71
2024/03/31 08:28:36;;;;;;;14.13;3.83;;;12.50;98.60;;;;;;4988549;28;20195;-73
2024/03/31 08:31:03;;;;;;;12.57;3.07;;;12.70;98.60;;;;;;4995741;28;20628;-73
2024/03/31 08:33:30;;;;;;;4.17;2.90;;;12.80;98.20;;;;;;5012593;28;20279;-73
2024/03/31 08:35:57;;;;;;;12.57;4.13;;;13.00;97.70;;;;;;5048658;28;20976;-73
2024/03/31 08:38:22;;;;;;;9.70;3.00;;;13.10;97.50;;;;;;5007533;28;20974;-73
2024/03/31 08:40:55;;;;;;;9.60;3.20;;;13.20;96.90;;;;;;5027595;28;20632;-73
2024/03/31 08:43:22;;;;;;;9.67;3.30;;;13.20;96.80;;;;;;5031993;28;20448;-73
2024/03/31 08:45:50;;;;;;;15.20;3.63;;;12.90;97.00;;;;;;5025152;28;20628;-73
2024/03/31 08:48:18;;;;;;;12.70;4.33;;;12.70;97.40;;;;;;5049491;28;21199;-73
2024/03/31 08:50:47;;;;;;;8.33;3.10;;;12.80;97.50;;;;;;5022193;28;20634;-73
2024/03/31 08:53:13;;;;;;;9.80;3.07;;;12.90;97.40;;;;;;5048527;28;20655;-73
2024/03/31 08:55:40;;;;;;;5.23;2.77;;;13.10;97.30;;;;;;5022821;28;21109;-73
2024/03/31 08:58:07;;;;;;;13.07;2.90;;;13.40;97.40;;;;;;4991766;28;20733;-73
2024/03/31 09:00:37;;;;;;;11.03;2.60;;;13.50;96.80;;;;;;5052823;28;20736;-74
2024/03/31 09:03:03;;;;;;;5.53;2.10;;;13.60;96.20;;;;;;4991590;28;20683;-73
2024/03/31 09:05:30;;;;;;;8.27;2.87;;;13.70;95.80;;;;;;4997266;28;20632;-73
2024/03/31 09:07:58;;;;;;;7.17;2.60;;;13.80;95.50;;;;;;5052805;28;20630;-74
2024/03/31 09:10:25;;;;;;;6.13;2.83;;;13.90;95.00;;;;;;5026546;28;20730;-73
2024/03/31 09:12:52;;;;;;;7.17;2.70;;;14.10;94.40;;;;;;4982047;28;20642;-74
2024/03/31 09:15:19;;;;;;;9.87;2.77;;;14.10;93.90;;;;;;5006699;28;20629;-73
2024/03/31 09:17:45;;;;;;;14.30;4.17;;;14.10;94.10;;;;;;5055879;28;20621;-74
2024/03/31 09:20:12;;;;;;;9.07;2.73;;;14.20;94.10;;;;;;5036789;28;21178;-74
2024/03/31 09:22:39;;;;;;;12.03;3.43;;;14.30;93.90;;;;;;5048192;28;20227;-74
2024/03/31 09:25:09;;;;;;;8.30;3.40;;;14.30;94.10;;;;;;5017957;28;20656;-74
2024/03/31 09:27:36;;;;;;;15.00;2.63;;;14.30;93.70;;;;;;5040283;28;20640;-74
2024/03/31 09:30:06;;;;;;;12.93;3.50;;;14.20;93.40;;;;;;5016709;28;20845;-74
2024/03/31 09:32:32;;;;;;;6.30;2.53;;;14.20;93.30;;;;;;5035049;28;21188;-74
2024/03/31 09:34:59;;;;;;;7.77;2.63;;;14.20;93.10;;;;;;5043379;28;20636;-74
2024/03/31 09:37:25;;;;;;;13.37;3.87;;;14.20;93.10;;;;;;5058839;28;20724;-74
2024/03/31 09:39:53;;;;;;;15.47;3.50;;;14.30;93.00;;;;;;5011760;28;20740;-74
2024/03/31 09:42:21;;;;;;;10.77;4.70;;;14.40;92.90;;;;;;5057622;28;20206;-74
2024/03/31 09:44:48;;;;;;;12.03;2.80;;;14.40;93.10;;;;;;5028986;28;20634;-74
2024/03/31 09:47:22;;;;;;;22.20;3.17;;;14.50;92.70;;;;;;5031875;28;20629;-74
2024/03/31 09:50:00;;;;;;;17.20;3.23;;;14.50;93.10;;;;;;4993180;28;20679;-74
2024/03/31 09:52:31;;;;;;;12.73;3.10;;;14.50;92.50;;;;;;5036374;28;20637;-74
2024/03/31 09:55:02;;;;;;;11.53;3.30;;;14.40;92.70;;;;;;5005742;28;20625;-74
2024/03/31 09:57:34;;;;;;;8.53;2.70;;;14.40;92.50;;;;;;4968869;28;20645;-74
2024/03/31 10:00:04;;;;;;;13.87;4.53;;;14.40;92.40;;;;;;5010634;28;20629;-74
2024/03/31 10:02:31;;;;;;;11.73;3.40;;;14.50;92.00;;;;;;5018658;28;21245;-74
2024/03/31 10:05:06;;;;;;;10.80;3.57;;;14.70;92.50;;;;;;5011918;28;20630;-74
2024/03/31 10:07:33;;;;;;;8.63;2.67;;;14.90;92.20;;;;;;5008974;28;20728;-74
2024/03/31 10:10:02;;;;;;;8.60;3.10;;;15.10;92.20;;;;;;5029859;28;20637;-74
2024/03/31 10:12:31;;;;;;;17.97;3.33;;;15.40;92.20;;;;;;5000438;28;20622;-74
2024/03/31 10:15:01;;;;;;;19.10;3.10;;;15.60;91.90;;;;;;5028076;28;20726;-74
2024/03/31 10:17:27;;;;;;;10.23;3.53;;;15.60;90.90;;;;;;5026633;28;21165;-74
2024/03/31 10:19:56;;;;;;;14.23;3.20;;;15.60;91.30;;;;;;5044333;28;20996;-74
2024/03/31 10:22:23;;;;;;;14.30;3.17;;;15.80;91.30;;;;;;5022714;28;20659;-74
2024/03/31 10:24:51;;;;;;;11.90;2.63;;;15.90;90.20;;;;;;5026588;28;20668;-74
2024/03/31 10:27:18;;;;;;;9.03;3.80;;;15.90;89.20;;;;;;4994021;28;21023;-74
2024/03/31 10:29:47;;;;;;;9.13;2.30;;;15.90;88.00;;;;;;4995829;28;20628;-74
2024/03/31 10:32:13;;;;;;;13.23;5.43;;;16.00;87.20;;;;;;5014271;28;20632;-74
2024/03/31 10:34:40;;;;;;;11.20;3.53;;;16.10;86.10;;;;;;4996571;28;20625;-74
2024/03/31 10:37:08;;;;;;;9.33;2.53;;;16.20;87.00;;;;;;4999314;28;20198;-74
2024/03/31 10:39:36;;;;;;;13.93;3.67;;;16.40;87.90;;;;;;4989174;28;21277;-74
2024/03/31 10:42:02;;;;;;;11.87;3.10;;;16.50;87.60;;;;;;4987531;28;20729;-74
2024/03/31 10:44:29;;;;;;;13.23;3.80;;;16.60;86.50;;;;;;5023273;28;20672;-74
2024/03/31 10:46:56;;;;;;;16.37;2.97;;;16.60;84.10;;;;;;5013669;28;22168;-74
2024/03/31 10:49:31;;;;;;;10.90;3.80;;;16.70;83.60;;;;;;5000817;28;21186;-74
2024/03/31 10:51:58;;;;;;;16.60;3.07;;;16.60;83.70;;;;;;4996989;28;20632;-74
2024/03/31 10:54:33;;;;;;;6.63;2.50;;;16.60;84.10;;;;;;5015792;28;20658;-74
2024/03/31 10:57:01;;;;;;;8.13;2.23;;;16.60;82.90;;;;;;4975534;28;20973;-73
2024/03/31 10:59:29;;;;;;;10.30;3.33;;;16.60;83.80;;;;;;4996079;28;20630;-73
2024/03/31 11:01:57;;;;;;;6.20;2.20;;;16.60;83.90;;;;;;5023721;28;20625;-73
2024/03/31 11:04:25;;;;;;;14.30;3.50;;;16.60;84.10;;;;;;5047084;28;20701;-73
2024/03/31 11:06:52;;;;;;;7.20;2.70;;;16.50;83.90;;;;;;4988800;28;20686;-73
2024/03/31 11:09:19;;;;;;;11.43;2.77;;;16.50;83.00;;;;;;4999689;28;20677;-74
2024/03/31 11:11:45;;;;;;;8.07;2.93;;;16.40;84.30;;;;;;5000328;28;20633;-74
2024/03/31 11:14:12;;;;;;;8.40;3.00;;;16.40;85.40;;;;;;5016707;28;20630;-74
2024/03/31 11:16:39;;;;;;;12.23;3.20;;;16.30;86.50;;;;;;5040565;28;20645;-74
2024/03/31 11:19:08;;;;;;;8.10;3.40;;;16.20;86.10;;;;;;4983512;28;20622;-74
2024/03/31 11:21:34;;;;;;;6.10;2.77;;;16.20;86.50;;;;;;5004397;28;21189;-74
2024/03/31 11:24:03;;;;;;;10.90;4.60;;;16.20;87.30;;;;;;4981199;28;20684;-74
2024/03/31 11:26:29;;;;;;;12.13;3.23;;;16.10;86.40;;;;;;4986078;28;20210;-72
2024/03/31 11:28:57;;;;;;;10.90;3.60;;;16.30;86.50;;;;;;4975631;28;20664;-73
2024/03/31 11:31:23;;;;;;;20.73;7.20;;;16.20;87.10;;;;;;5046183;28;20641;-73
2024/03/31 11:33:50;;;;;;;11.40;3.40;;;16.30;87.00;;;;;;4996314;28;20618;-73
2024/03/31 11:36:17;;;;;;;9.87;3.33;;;16.30;87.10;;;;;;5043256;28;20637;-73
2024/03/31 11:38:44;;;;;;;8.07;3.07;;;16.30;86.00;;;;;;5038387;28;21069;-73
2024/03/31 11:41:10;;;;;;;15.33;2.77;;;16.20;86.10;;;;;;4977118;28;20744;-73
2024/03/31 11:43:37;;;;;;;10.40;2.80;;;16.20;85.30;;;;;;5039265;28;20701;-73
2024/03/31 11:46:03;;;;;;;6.70;2.90;;;16.40;85.40;;;;;;5010673;28;21062;-73
2024/03/31 11:48:31;;;;;;;9.57;3.13;;;16.60;85.20;;;;;;4995250;28;20745;-73
2024/03/31 11:50:57;;;;;;;6.53;3.20;;;16.80;84.60;;;;;;5019931;28;20672;-73
2024/03/31 11:53:25;;;;;;;6.43;3.03;;;16.80;84.00;;;;;;5039266;28;21176;-72
2024/03/31 11:55:51;;;;;;;10.03;2.67;;;16.70;84.60;;;;;;4992729;28;20925;-73
2024/03/31 11:58:18;;;;;;;8.70;2.73;;;16.80;84.30;;;;;;4974928;28;20644;-73
2024/03/31 12:00:50;;;;;;;16.10;3.73;;;16.90;84.80;;;;;;5009331;28;20210;-73
2024/03/31 12:03:17;;;;;;;14.80;3.30;;;17.10;84.60;;;;;;4984604;28;20711;-73
2024/03/31 12:05:46;;;;;;;10.03;2.97;;;17.10;85.60;;;;;;4982187;28;20985;-75
2024/03/31 12:08:13;;;;;;;11.60;3.20;;;17.30;84.20;;;;;;4992900;28;20672;-75
2024/03/31 12:10:40;;;;;;;15.77;2.60;;;17.30;83.90;;;;;;5015955;28;20627;-75
2024/03/31 12:13:07;;;;;;;11.27;3.40;;;17.30;84.30;;;;;;5050390;28;20717;-75
2024/03/31 12:15:33;;;;;;;9.03;2.40;;;17.50;84.00;;;;;;5049850;28;20672;-75
2024/03/31 12:18:00;;;;;;;14.30;3.23;;;17.60;82.30;;;;;;5034283;28;20654;-75
2024/03/31 12:20:26;;;;;;;7.77;3.47;;;17.60;84.00;;;;;;5026348;28;20629;-75
2024/03/31 12:22:54;;;;;;;13.03;4.43;;;17.60;81.80;;;;;;5019015;28;20612;-75
2024/03/31 12:25:20;;;;;;;11.47;3.53;;;17.60;80.70;;;;;;5032979;28;20199;-75
2024/03/31 12:27:49;;;;;;;12.37;3.70;;;17.50;80.60;;;;;;5015979;28;20649;-75
2024/03/31 12:30:15;;;;;;;7.27;2.80;;;17.40;80.80;;;;;;5026292;28;20640;-75
2024/03/31 12:32:42;;;;;;;9.47;2.57;;;17.30;82.00;;;;;;5033391;28;20625;-75
2024/03/31 12:35:08;;;;;;;7.97;2.50;;;17.30;82.70;;;;;;5037105;28;20754;-75
2024/03/31 12:37:37;;;;;;;14.90;3.50;;;17.50;81.20;;;;;;4999931;28;20634;-74
2024/03/31 12:40:06;;;;;;;9.47;3.10;;;17.60;80.80;;;;;;4996402;28;20290;-74
2024/03/31 12:42:38;;;;;;;7.23;2.23;;;17.70;81.30;;;;;;5016877;28;21130;-74
2024/03/31 12:45:06;;;;;;;10.50;2.90;;;17.80;79.50;;;;;;4983106;28;20672;-74